createdAt,value
2019-06-27T00:00:46.967Z,0.00
2019-06-27T00:01:45.392Z,0.00
2019-06-27T00:02:48.467Z,0.00
2019-06-27T00:03:44.931Z,0.00
2019-06-27T00:04:48.941Z,0.00
2019-06-27T00:05:46.918Z,0.00
2019-06-27T00:06:46.528Z,0.00
2019-06-27T00:07:47.438Z,0.00
2019-06-27T00:08:45.919Z,0.00
2019-06-27T00:09:47.939Z,0.00
2019-06-27T00:10:46.304Z,0.00
2019-06-27T00:11:48.445Z,0.00
2019-06-27T00:12:48.444Z,0.00
2019-06-27T00:13:47.830Z,0.00
2019-06-27T00:14:46.974Z,0.00
2019-06-27T00:15:47.147Z,0.00
2019-06-27T00:16:48.381Z,0.00
2019-06-27T00:17:55.455Z,0.00
2019-06-27T00:18:49.456Z,0.00
2019-06-27T00:19:51.449Z,0.00
2019-06-27T00:20:48.146Z,0.00
2019-06-27T00:21:49.960Z,0.00
2019-06-27T00:22:50.445Z,0.00
2019-06-27T00:23:50.500Z,0.00
2019-06-27T00:24:50.895Z,0.00
2019-06-27T00:25:51.978Z,0.00
2019-06-27T00:27:04.942Z,0.00
2019-06-27T00:27:57.469Z,0.00
2019-06-27T00:28:49.694Z,0.00
2019-06-27T00:29:49.909Z,0.00
2019-06-27T00:30:50.740Z,0.00
2019-06-27T00:31:51.951Z,0.00
2019-06-27T00:32:56.464Z,0.00
2019-06-27T00:33:52.439Z,0.00
2019-06-27T00:34:52.494Z,0.00
2019-06-27T00:35:51.079Z,0.00
2019-06-27T00:36:51.242Z,0.00
2019-06-27T00:37:51.490Z,0.00
2019-06-27T00:38:53.447Z,0.00
2019-06-27T00:39:51.826Z,0.00
2019-06-27T00:40:51.928Z,0.00
2019-06-27T00:41:53.949Z,0.00
2019-06-27T00:42:53.990Z,0.00
2019-06-27T00:43:53.470Z,0.00
2019-06-27T00:44:54.446Z,0.00
2019-06-27T00:45:54.444Z,0.00
2019-06-27T00:46:53.341Z,0.00
2019-06-27T00:47:53.270Z,0.00
2019-06-27T00:48:55.443Z,0.00
2019-06-27T00:49:55.444Z,0.00
2019-06-27T00:50:53.786Z,0.00
2019-06-27T00:51:55.951Z,0.00
2019-06-27T00:53:10.897Z,0.00
2019-06-27T00:53:55.960Z,0.00
2019-06-27T00:54:54.537Z,0.00
2019-06-27T00:55:56.460Z,0.00
2019-06-27T00:57:12.848Z,0.00
2019-06-27T00:57:56.950Z,0.00
2019-06-27T00:58:55.318Z,0.00
2019-06-27T00:59:57.453Z,0.00
2019-06-27T01:00:55.709Z,0.00
2019-06-27T01:01:56.842Z,0.00
2019-06-27T01:02:55.954Z,0.00
2019-06-27T01:03:59.948Z,0.00
2019-06-27T01:04:56.425Z,0.00
2019-06-27T01:05:56.660Z,0.00
2019-06-27T01:07:12.747Z,0.00
2019-06-27T01:07:57.026Z,0.00
2019-06-27T01:08:58.951Z,0.00
2019-06-27T01:10:01.132Z,0.00
2019-06-27T01:10:57.584Z,0.00
2019-06-27T01:11:58.822Z,0.00
2019-06-27T01:12:59.082Z,0.00
2019-06-27T01:13:59.195Z,0.00
2019-06-27T01:14:58.295Z,0.00
2019-06-27T01:16:01.442Z,0.00
2019-06-27T01:17:02.450Z,0.00
2019-06-27T01:17:58.948Z,0.00
2019-06-27T01:18:59.123Z,0.00
2019-06-27T01:20:02.977Z,0.00
2019-06-27T01:21:01.450Z,0.00
2019-06-27T01:22:01.455Z,0.00
2019-06-27T01:23:00.813Z,0.00
2019-06-27T01:24:00.933Z,0.00
2019-06-27T01:25:00.038Z,0.00
2019-06-27T01:26:00.263Z,0.00
2019-06-27T01:27:02.451Z,0.00
2019-06-27T01:28:00.655Z,0.00
2019-06-27T01:29:02.448Z,0.00
2019-06-27T01:30:01.040Z,0.00
2019-06-27T01:31:02.950Z,0.00
2019-06-27T01:32:01.446Z,0.00
2019-06-27T01:33:01.557Z,0.00
2019-06-27T01:34:03.448Z,0.00
2019-06-27T01:35:04.421Z,0.00
2019-06-27T01:36:03.957Z,0.00
2019-06-27T01:37:04.001Z,0.00
2019-06-27T01:38:03.958Z,0.00
2019-06-27T01:39:02.549Z,0.00
2019-06-27T01:40:05.453Z,0.00
2019-06-27T01:41:02.911Z,0.00
2019-06-27T01:42:04.964Z,0.00
2019-06-27T01:43:03.328Z,0.00
2019-06-27T01:44:06.972Z,0.00
2019-06-27T01:45:03.583Z,0.00
2019-06-27T01:46:03.804Z,0.00
2019-06-27T01:47:05.953Z,0.00
2019-06-27T01:48:05.963Z,0.00
2019-06-27T01:49:05.988Z,0.00
2019-06-27T01:50:04.558Z,0.00
2019-06-27T01:51:04.770Z,0.00
2019-06-27T01:52:04.984Z,0.00
2019-06-27T01:53:05.199Z,0.00
2019-06-27T01:54:05.419Z,0.00
2019-06-27T01:55:05.640Z,0.00
2019-06-27T01:56:05.876Z,0.00
2019-06-27T01:57:09.950Z,0.00
2019-06-27T01:58:07.957Z,0.00
2019-06-27T01:59:06.426Z,0.00
2019-06-27T02:00:10.471Z,0.00
2019-06-27T02:01:08.474Z,0.00
2019-06-27T02:02:08.452Z,0.00
2019-06-27T02:03:07.192Z,0.00
2019-06-27T02:04:10.955Z,0.00
2019-06-27T02:05:23.452Z,0.00
2019-06-27T02:06:07.783Z,0.00
2019-06-27T02:07:09.951Z,0.00
2019-06-27T02:08:09.962Z,0.00
2019-06-27T02:09:09.954Z,0.00
2019-06-27T02:10:08.542Z,0.00
2019-06-27T02:11:10.463Z,0.00
2019-06-27T02:12:10.466Z,0.00
2019-06-27T02:13:09.061Z,0.00
2019-06-27T02:14:21.030Z,0.00
2019-06-27T02:15:11.469Z,0.00
2019-06-27T02:16:11.453Z,0.00
2019-06-27T02:17:09.784Z,0.00
2019-06-27T02:18:10.042Z,0.00
2019-06-27T02:19:11.957Z,0.00
2019-06-27T02:20:10.287Z,0.00
2019-06-27T02:21:10.497Z,0.00
2019-06-27T02:22:10.711Z,0.00
2019-06-27T02:23:10.916Z,0.00
2019-06-27T02:24:12.960Z,0.00
2019-06-27T02:25:11.289Z,0.00
2019-06-27T02:26:11.559Z,0.00
2019-06-27T02:27:13.451Z,0.00
2019-06-27T02:28:15.453Z,0.00
2019-06-27T02:29:11.918Z,0.00
2019-06-27T02:30:12.127Z,0.00
2019-06-27T02:31:13.958Z,0.00
2019-06-27T02:32:16.461Z,0.00
2019-06-27T02:33:14.487Z,0.00
2019-06-27T02:34:12.813Z,0.00
2019-06-27T02:35:14.995Z,0.00
2019-06-27T02:36:13.231Z,0.00
2019-06-27T02:37:13.341Z,0.00
2019-06-27T02:38:15.464Z,0.00
2019-06-27T02:39:13.822Z,0.00
2019-06-27T02:40:13.916Z,0.00
2019-06-27T02:41:17.956Z,0.00
2019-06-27T02:42:15.954Z,0.00
2019-06-27T02:43:15.966Z,0.00
2019-06-27T02:44:16.456Z,0.00
2019-06-27T02:45:16.458Z,0.00
2019-06-27T02:46:14.919Z,0.00
2019-06-27T02:47:15.143Z,0.00
2019-06-27T02:48:15.368Z,0.00
2019-06-27T02:49:17.467Z,0.00
2019-06-27T02:50:17.455Z,0.00
2019-06-27T02:51:17.464Z,0.00
2019-06-27T02:52:16.063Z,0.00
2019-06-27T02:53:17.953Z,0.00
2019-06-27T02:54:19.973Z,0.00
2019-06-27T02:55:16.564Z,0.00
2019-06-27T02:56:16.810Z,5.63
2019-06-27T02:57:18.964Z,5.63
2019-06-27T02:58:30.152Z,5.63
2019-06-27T02:59:18.977Z,5.63
2019-06-27T03:00:19.470Z,5.63
2019-06-27T03:01:17.684Z,5.63
2019-06-27T03:02:17.895Z,5.63
2019-06-27T03:03:18.113Z,5.63
2019-06-27T03:04:18.336Z,11.25
2019-06-27T03:05:18.576Z,11.25
2019-06-27T03:06:21.580Z,11.25
2019-06-27T03:07:18.930Z,11.25
2019-06-27T03:08:19.131Z,11.25
2019-06-27T03:09:19.360Z,16.88
2019-06-27T03:10:19.575Z,16.88
2019-06-27T03:11:21.481Z,16.88
2019-06-27T03:12:21.458Z,16.88
2019-06-27T03:13:21.972Z,16.88
2019-06-27T03:14:24.969Z,22.50
2019-06-27T03:15:21.965Z,22.50
2019-06-27T03:16:22.460Z,22.50
2019-06-27T03:17:20.668Z,22.50
2019-06-27T03:18:22.475Z,28.13
2019-06-27T03:19:21.070Z,28.13
2019-06-27T03:20:21.285Z,28.13
2019-06-27T03:21:21.512Z,28.13
2019-06-27T03:22:23.462Z,33.75
2019-06-27T03:23:21.949Z,33.75
2019-06-27T03:24:22.080Z,33.75
2019-06-27T03:25:23.967Z,39.38
2019-06-27T03:26:24.008Z,39.38
2019-06-27T03:27:22.579Z,45.00
2019-06-27T03:28:24.467Z,45.00
2019-06-27T03:29:22.920Z,45.00
2019-06-27T03:30:23.136Z,50.63
2019-06-27T03:31:23.360Z,50.63
2019-06-27T03:32:23.570Z,56.25
2019-06-27T03:33:25.477Z,56.25
2019-06-27T03:34:25.478Z,56.25
2019-06-27T03:35:27.973Z,61.88
2019-06-27T03:36:27.987Z,61.88
2019-06-27T03:37:24.455Z,67.50
2019-06-27T03:38:24.586Z,67.50
2019-06-27T03:39:24.793Z,73.13
2019-06-27T03:40:26.967Z,73.13
2019-06-27T03:41:25.178Z,78.75
2019-06-27T03:42:26.972Z,78.75
2019-06-27T03:43:25.554Z,84.38
2019-06-27T03:44:25.773Z,90.00
2019-06-27T03:45:26.009Z,95.63
2019-06-27T03:46:29.965Z,101.25
2019-06-27T03:47:28.016Z,101.25
2019-06-27T03:48:26.420Z,106.88
2019-06-27T03:49:30.461Z,112.50
2019-06-27T03:50:28.474Z,118.13
2019-06-27T03:51:30.463Z,123.75
2019-06-27T03:52:28.967Z,129.38
2019-06-27T03:53:27.297Z,135.00
2019-06-27T03:54:27.523Z,135.00
2019-06-27T03:55:27.765Z,140.63
2019-06-27T03:56:29.464Z,140.63
2019-06-27T03:57:31.977Z,146.25
2019-06-27T03:58:29.965Z,151.88
2019-06-27T03:59:29.965Z,151.88
2019-06-27T04:00:29.967Z,157.50
2019-06-27T04:01:35.471Z,157.50
2019-06-27T04:02:32.462Z,163.13
2019-06-27T04:03:28.805Z,163.13
2019-06-27T04:04:31.198Z,168.75
2019-06-27T04:05:29.311Z,174.38
2019-06-27T04:06:29.444Z,180.00
2019-06-27T04:07:29.588Z,185.63
2019-06-27T04:08:29.542Z,191.25
2019-06-27T04:09:29.762Z,191.25
2019-06-27T04:10:33.983Z,196.88
2019-06-27T04:11:30.379Z,196.88
2019-06-27T04:12:31.985Z,196.88
2019-06-27T04:13:30.465Z,202.50
2019-06-27T04:14:30.689Z,202.50
2019-06-27T04:15:30.906Z,208.13
2019-06-27T04:16:31.940Z,208.13
2019-06-27T04:17:31.291Z,213.75
2019-06-27T04:18:31.514Z,219.38
2019-06-27T04:19:31.724Z,219.38
2019-06-27T04:20:33.477Z,225.00
2019-06-27T04:21:32.064Z,236.25
2019-06-27T04:22:32.284Z,241.88
2019-06-27T04:23:34.524Z,247.50
2019-06-27T04:24:32.711Z,253.13
2019-06-27T04:25:34.509Z,264.38
2019-06-27T04:26:33.052Z,264.38
2019-06-27T04:27:40.975Z,270.00
2019-06-27T04:28:36.964Z,275.63
2019-06-27T04:29:34.742Z,281.25
2019-06-27T04:30:37.495Z,286.88
2019-06-27T04:31:35.479Z,286.88
2019-06-27T04:32:34.222Z,292.50
2019-06-27T04:33:34.412Z,303.75
2019-06-27T04:34:36.471Z,303.75
2019-06-27T04:35:34.827Z,303.75
2019-06-27T04:36:36.969Z,309.38
2019-06-27T04:37:35.214Z,303.75
2019-06-27T04:38:36.965Z,309.38
2019-06-27T04:39:36.703Z,309.38
2019-06-27T04:40:37.464Z,315.00
2019-06-27T04:41:35.955Z,320.63
2019-06-27T04:42:36.161Z,320.63
2019-06-27T04:43:39.975Z,320.63
2019-06-27T04:44:36.552Z,326.25
2019-06-27T04:45:38.465Z,326.25
2019-06-27T04:46:40.476Z,331.88
2019-06-27T04:47:37.082Z,331.88
2019-06-27T04:48:37.289Z,343.13
2019-06-27T04:49:37.489Z,337.50
2019-06-27T04:50:37.699Z,343.13
2019-06-27T04:51:39.501Z,348.75
2019-06-27T04:52:41.971Z,354.38
2019-06-27T04:53:39.980Z,354.38
2019-06-27T04:54:40.981Z,360.00
2019-06-27T04:55:40.467Z,365.63
2019-06-27T04:56:42.472Z,365.63
2019-06-27T04:57:38.928Z,371.25
2019-06-27T04:58:42.972Z,371.25
2019-06-27T04:59:52.597Z,371.25
2019-06-27T05:00:41.468Z,376.88
2019-06-27T05:01:43.467Z,376.88
2019-06-27T05:02:39.840Z,382.50
2019-06-27T05:03:41.474Z,388.13
2019-06-27T05:04:41.970Z,388.13
2019-06-27T05:05:41.978Z,393.75
2019-06-27T05:06:41.968Z,393.75
2019-06-27T05:07:41.971Z,399.38
2019-06-27T05:08:42.505Z,405.00
2019-06-27T05:09:40.874Z,410.63
2019-06-27T05:10:41.080Z,416.25
2019-06-27T05:11:44.975Z,416.25
2019-06-27T05:12:41.429Z,421.88
2019-06-27T05:13:41.666Z,421.88
2019-06-27T05:14:43.473Z,427.50
2019-06-27T05:15:43.499Z,433.13
2019-06-27T05:16:42.101Z,416.25
2019-06-27T05:17:43.326Z,427.50
2019-06-27T05:18:44.472Z,444.38
2019-06-27T05:19:42.685Z,450.00
2019-06-27T05:20:42.893Z,450.00
2019-06-27T05:21:50.978Z,455.63
2019-06-27T05:22:45.019Z,461.25
2019-06-27T05:23:46.971Z,472.50
2019-06-27T05:24:43.678Z,472.50
2019-06-27T05:25:47.474Z,483.75
2019-06-27T05:26:47.971Z,495.00
2019-06-27T05:27:46.012Z,506.25
2019-06-27T05:28:45.984Z,528.75
2019-06-27T05:29:46.535Z,545.63
2019-06-27T05:30:52.476Z,568.13
2019-06-27T05:31:45.942Z,590.63
2019-06-27T05:32:48.994Z,607.50
2019-06-27T05:33:46.975Z,641.25
2019-06-27T05:34:45.557Z,669.38
2019-06-27T05:35:49.476Z,686.25
2019-06-27T05:36:50.159Z,714.38
2019-06-27T05:37:49.981Z,731.25
2019-06-27T05:38:49.990Z,748.13
2019-06-27T05:39:46.493Z,776.25
2019-06-27T05:40:48.475Z,500.63
2019-06-27T05:41:50.575Z,720.00
2019-06-27T05:42:47.056Z,849.38
2019-06-27T05:43:47.202Z,883.13
2019-06-27T05:44:50.985Z,911.25
2019-06-27T05:45:55.512Z,928.13
2019-06-27T05:46:47.725Z,967.50
2019-06-27T05:47:49.933Z,945.00
2019-06-27T05:49:09.188Z,956.25
2019-06-27T05:49:49.972Z,1001.25
2019-06-27T05:50:48.550Z,1018.13
2019-06-27T05:51:48.785Z,1040.63
2019-06-27T05:53:04.470Z,1029.38
2019-06-27T05:53:49.177Z,1130.63
2019-06-27T05:54:49.334Z,1175.63
2019-06-27T05:55:51.471Z,1231.88
2019-06-27T05:56:49.690Z,1231.88
2019-06-27T05:57:52.427Z,1220.63
2019-06-27T05:58:52.943Z,1136.25
2019-06-27T05:59:53.973Z,1203.75
2019-06-27T06:00:51.977Z,1192.50
2019-06-27T06:01:51.482Z,1170.00
2019-06-27T06:02:53.425Z,1226.25
2019-06-27T06:03:50.782Z,1237.50
2019-06-27T06:04:53.042Z,1231.88
2019-06-27T06:05:54.033Z,1231.88
2019-06-27T06:06:53.001Z,1125.00
2019-06-27T06:07:52.459Z,1248.75
2019-06-27T06:08:52.017Z,1260.00
2019-06-27T06:09:52.072Z,1288.13
2019-06-27T06:10:55.975Z,1305.00
2019-06-27T06:11:55.984Z,1316.25
2019-06-27T06:12:54.475Z,1338.75
2019-06-27T06:13:56.478Z,1372.50
2019-06-27T06:14:54.512Z,1378.13
2019-06-27T06:15:54.094Z,1389.38
2019-06-27T06:16:53.325Z,1400.63
2019-06-27T06:17:57.474Z,1423.13
2019-06-27T06:19:16.481Z,1462.50
2019-06-27T06:19:55.016Z,1496.25
2019-06-27T06:20:55.481Z,1501.88
2019-06-27T06:21:56.934Z,1535.63
2019-06-27T06:22:56.313Z,1546.88
2019-06-27T06:24:03.554Z,1575.00
2019-06-27T06:24:58.288Z,1597.50
2019-06-27T06:25:55.153Z,1642.50
2019-06-27T06:26:55.252Z,1665.00
2019-06-27T06:28:02.982Z,1698.75
2019-06-27T06:29:18.885Z,1631.25
2019-06-27T06:29:59.435Z,1760.63
2019-06-27T06:30:58.024Z,1743.75
2019-06-27T06:32:17.263Z,1749.38
2019-06-27T06:32:56.531Z,1755.00
2019-06-27T06:33:58.455Z,1766.25
2019-06-27T06:34:59.165Z,1800.00
2019-06-27T06:35:58.983Z,1828.13
2019-06-27T06:36:58.979Z,1822.50
2019-06-27T06:38:01.030Z,1850.63
2019-06-27T06:39:00.978Z,1861.88
2019-06-27T06:40:00.458Z,1861.88
2019-06-27T06:41:01.518Z,1867.50
2019-06-27T06:41:59.018Z,1878.75
2019-06-27T06:43:00.976Z,1895.63
2019-06-27T06:44:00.961Z,1901.25
2019-06-27T06:45:00.049Z,1963.13
2019-06-27T06:45:58.691Z,1968.75
2019-06-27T06:47:00.495Z,1980.00
2019-06-27T06:48:01.024Z,2013.75
2019-06-27T06:49:07.935Z,2086.88
2019-06-27T06:50:05.008Z,2115.00
2019-06-27T06:50:59.789Z,2137.50
2019-06-27T06:52:01.491Z,2148.75
2019-06-27T06:52:59.955Z,2188.13
2019-06-27T06:54:01.201Z,2210.63
2019-06-27T06:55:02.057Z,2171.25
2019-06-27T06:56:01.476Z,2199.38
2019-06-27T06:57:02.502Z,2221.88
2019-06-27T06:58:02.527Z,2233.13
2019-06-27T06:59:03.037Z,2261.25
2019-06-27T07:00:02.992Z,2266.88
2019-06-27T07:01:09.035Z,2261.25
2019-06-27T07:02:03.494Z,2278.13
2019-06-27T07:03:03.537Z,2278.13
2019-06-27T07:04:01.903Z,2289.38
2019-06-27T07:05:04.231Z,2323.13
2019-06-27T07:06:04.005Z,2351.25
2019-06-27T07:07:13.060Z,2385.00
2019-06-27T07:08:02.594Z,2413.13
2019-06-27T07:09:02.802Z,2401.88
2019-06-27T07:10:07.009Z,2435.63
2019-06-27T07:11:07.007Z,2452.50
2019-06-27T07:12:05.955Z,2452.50
2019-06-27T07:13:09.545Z,2458.13
2019-06-27T07:14:06.526Z,2497.50
2019-06-27T07:15:04.141Z,2525.63
2019-06-27T07:16:05.989Z,2525.63
2019-06-27T07:17:06.014Z,2553.75
2019-06-27T07:18:06.484Z,2570.63
2019-06-27T07:19:08.492Z,2587.50
2019-06-27T07:20:08.484Z,2604.38
2019-06-27T07:21:07.066Z,2615.63
2019-06-27T07:22:07.007Z,2643.75
2019-06-27T07:23:12.997Z,2649.38
2019-06-27T07:24:07.948Z,2655.00
2019-06-27T07:25:07.496Z,2660.63
2019-06-27T07:26:13.985Z,2677.50
2019-06-27T07:27:10.000Z,2677.50
2019-06-27T07:28:07.986Z,2694.38
2019-06-27T07:29:14.483Z,2705.63
2019-06-27T07:30:08.488Z,2728.13
2019-06-27T07:31:17.640Z,2750.63
2019-06-27T07:32:09.047Z,2773.13
2019-06-27T07:33:10.367Z,2818.13
2019-06-27T07:34:09.818Z,2846.25
2019-06-27T07:35:10.988Z,2863.13
2019-06-27T07:36:09.482Z,2880.00
2019-06-27T07:37:09.995Z,2868.75
2019-06-27T07:38:08.616Z,2885.63
2019-06-27T07:39:11.081Z,2863.13
2019-06-27T07:40:10.497Z,2863.13
2019-06-27T07:41:09.080Z,2891.25
2019-06-27T07:42:30.312Z,2885.63
2019-06-27T07:43:11.008Z,2925.00
2019-06-27T07:44:10.491Z,2947.50
2019-06-27T07:45:11.514Z,2970.00
2019-06-27T07:46:24.150Z,2986.88
2019-06-27T07:47:14.027Z,3015.00
2019-06-27T07:48:12.483Z,3043.13
2019-06-27T07:49:13.450Z,3071.25
2019-06-27T07:50:14.493Z,3071.25
2019-06-27T07:51:12.961Z,3071.25
2019-06-27T07:52:13.032Z,3099.38
2019-06-27T07:53:11.396Z,3105.00
2019-06-27T07:54:13.495Z,3110.63
2019-06-27T07:55:15.802Z,3133.13
2019-06-27T07:56:14.943Z,3138.75
2019-06-27T07:57:15.449Z,3166.88
2019-06-27T07:58:12.304Z,3166.88
2019-06-27T07:59:14.489Z,3172.50
2019-06-27T08:00:15.442Z,3200.63
2019-06-27T08:01:14.492Z,3189.38
2019-06-27T08:02:16.129Z,3183.75
2019-06-27T08:03:29.524Z,3195.00
2019-06-27T08:04:18.734Z,3178.13
2019-06-27T08:05:17.497Z,3178.13
2019-06-27T08:06:18.029Z,3217.50
2019-06-27T08:07:16.030Z,3228.75
2019-06-27T08:08:14.966Z,3262.50
2019-06-27T08:09:17.989Z,3273.75
2019-06-27T08:10:14.453Z,3296.25
2019-06-27T08:11:14.693Z,3307.50
2019-06-27T08:12:16.520Z,3341.25
2019-06-27T08:13:18.990Z,3358.13
2019-06-27T08:14:18.047Z,3352.50
2019-06-27T08:15:18.092Z,3369.38
2019-06-27T08:16:22.490Z,3420.00
2019-06-27T08:17:17.539Z,3425.63
2019-06-27T08:18:16.970Z,3403.13
2019-06-27T08:19:16.212Z,3403.13
2019-06-27T08:20:19.017Z,3425.63
2019-06-27T08:21:18.529Z,3420.00
2019-06-27T08:22:21.943Z,3442.50
2019-06-27T08:23:19.466Z,3448.13
2019-06-27T08:24:17.127Z,3459.38
2019-06-27T08:25:17.236Z,3459.38
2019-06-27T08:26:18.998Z,3453.75
2019-06-27T08:27:19.495Z,3470.63
2019-06-27T08:28:17.773Z,3476.25
2019-06-27T08:29:17.894Z,3476.25
2019-06-27T08:30:21.048Z,3481.88
2019-06-27T08:31:22.025Z,3493.13
2019-06-27T08:32:20.501Z,3487.50
2019-06-27T08:33:18.737Z,3510.00
2019-06-27T08:34:21.506Z,3504.38
2019-06-27T08:35:20.494Z,3549.38
2019-06-27T08:36:20.992Z,3571.88
2019-06-27T08:37:24.012Z,3583.13
2019-06-27T08:38:19.607Z,3600.00
2019-06-27T08:39:21.543Z,3628.13
2019-06-27T08:40:47.020Z,3656.25
2019-06-27T08:41:20.225Z,3678.75
2019-06-27T08:42:21.502Z,3690.00
2019-06-27T08:43:22.461Z,3673.13
2019-06-27T08:44:24.493Z,3678.75
2019-06-27T08:45:22.989Z,3661.88
2019-06-27T08:46:22.996Z,3650.63
2019-06-27T08:47:23.964Z,3661.88
2019-06-27T08:48:23.500Z,3661.88
2019-06-27T08:49:21.851Z,3667.50
2019-06-27T08:50:24.009Z,3667.50
2019-06-27T08:51:24.000Z,3684.38
2019-06-27T08:52:23.380Z,3667.50
2019-06-27T08:53:23.999Z,3673.13
2019-06-27T08:54:26.515Z,3701.25
2019-06-27T08:55:22.859Z,3718.13
2019-06-27T08:56:25.343Z,3712.50
2019-06-27T08:57:25.035Z,3723.75
2019-06-27T08:58:25.006Z,3757.50
2019-06-27T08:59:25.523Z,3785.63
2019-06-27T09:00:23.709Z,3796.88
2019-06-27T09:01:23.930Z,3690.00
2019-06-27T09:02:27.999Z,3543.75
2019-06-27T09:03:27.055Z,3442.50
2019-06-27T09:04:28.495Z,3397.50
2019-06-27T09:05:29.098Z,3341.25
2019-06-27T09:06:24.927Z,3285.00
2019-06-27T09:07:25.160Z,3335.63
2019-06-27T09:08:33.016Z,3448.13
2019-06-27T09:09:26.606Z,3588.75
2019-06-27T09:10:29.494Z,3667.50
2019-06-27T09:11:38.042Z,3729.38
2019-06-27T09:12:27.999Z,3712.50
2019-06-27T09:13:27.959Z,3684.38
2019-06-27T09:14:28.536Z,3633.75
2019-06-27T09:15:26.781Z,3577.50
2019-06-27T09:16:28.950Z,3560.63
2019-06-27T09:17:35.006Z,3555.00
2019-06-27T09:18:28.368Z,3594.38
2019-06-27T09:19:29.513Z,3656.25
2019-06-27T09:20:31.493Z,3661.88
2019-06-27T09:21:29.497Z,3712.50
2019-06-27T09:22:36.005Z,3735.00
2019-06-27T09:23:30.047Z,3757.50
2019-06-27T09:24:32.501Z,3785.63
2019-06-27T09:25:36.492Z,3785.63
2019-06-27T09:26:30.949Z,3729.38
2019-06-27T09:27:32.029Z,3628.13
2019-06-27T09:28:29.381Z,3571.88
2019-06-27T09:29:29.610Z,3532.50
2019-06-27T09:30:29.847Z,3510.00
2019-06-27T09:31:30.070Z,3465.00
2019-06-27T09:32:31.303Z,3465.00
2019-06-27T09:33:32.453Z,3538.13
2019-06-27T09:34:32.507Z,3633.75
2019-06-27T09:35:46.496Z,3718.13
2019-06-27T09:36:32.077Z,3780.00
2019-06-27T09:37:31.338Z,3830.63
2019-06-27T09:38:31.498Z,3853.13
2019-06-27T09:39:31.607Z,3881.25
2019-06-27T09:40:35.495Z,3875.63
2019-06-27T09:41:33.522Z,3841.88
2019-06-27T09:42:37.026Z,3825.00
2019-06-27T09:43:34.036Z,3841.88
2019-06-27T09:44:33.537Z,3881.25
2019-06-27T09:45:35.496Z,3903.75
2019-06-27T09:46:33.859Z,3898.13
2019-06-27T09:47:34.995Z,3903.75
2019-06-27T09:48:35.031Z,3926.25
2019-06-27T09:49:33.389Z,3937.50
2019-06-27T09:50:33.623Z,3920.63
2019-06-27T09:51:36.533Z,3937.50
2019-06-27T09:52:34.980Z,3948.75
2019-06-27T09:53:34.194Z,3960.00
2019-06-27T09:54:35.996Z,3931.88
2019-06-27T09:55:35.595Z,3903.75
2019-06-27T09:56:34.856Z,3909.38
2019-06-27T09:57:36.536Z,3915.00
2019-06-27T09:58:38.994Z,3920.63
2019-06-27T09:59:37.031Z,3926.25
2019-06-27T10:00:37.512Z,3915.00
2019-06-27T10:01:43.522Z,3898.13
2019-06-27T10:02:41.696Z,3937.50
2019-06-27T10:03:36.194Z,3954.38
2019-06-27T10:04:44.958Z,3931.88
2019-06-27T10:05:40.495Z,3915.00
2019-06-27T10:06:40.497Z,3898.13
2019-06-27T10:07:49.488Z,3881.25
2019-06-27T10:08:38.998Z,3886.88
2019-06-27T10:09:38.995Z,3892.50
2019-06-27T10:10:38.998Z,3886.88
2019-06-27T10:11:37.594Z,3870.00
2019-06-27T10:12:42.860Z,3836.25
2019-06-27T10:13:37.982Z,3819.38
2019-06-27T10:14:39.992Z,3830.63
2019-06-27T10:15:38.350Z,3813.75
2019-06-27T10:16:40.506Z,3774.38
2019-06-27T10:17:40.496Z,3763.13
2019-06-27T10:18:40.511Z,3757.50
2019-06-27T10:19:39.252Z,3791.25
2019-06-27T10:20:40.997Z,3813.75
2019-06-27T10:21:39.602Z,3813.75
2019-06-27T10:22:39.840Z,3825.00
2019-06-27T10:23:48.954Z,3864.38
2019-06-27T10:24:40.316Z,3881.25
2019-06-27T10:25:42.494Z,3881.25
2019-06-27T10:26:40.740Z,3886.88
2019-06-27T10:27:42.518Z,3864.38
2019-06-27T10:28:46.020Z,3886.88
2019-06-27T10:29:42.999Z,3875.63
2019-06-27T10:30:42.997Z,3870.00
2019-06-27T10:31:43.503Z,3892.50
2019-06-27T10:32:57.688Z,3825.00
2019-06-27T10:33:41.971Z,3825.00
2019-06-27T10:34:42.208Z,3796.88
2019-06-27T10:35:43.653Z,3656.25
2019-06-27T10:36:44.512Z,3436.88
2019-06-27T10:37:43.888Z,3189.38
2019-06-27T10:38:45.039Z,2880.00
2019-06-27T10:39:45.021Z,2497.50
2019-06-27T10:40:43.552Z,2109.38
2019-06-27T10:41:43.763Z,1755.00
2019-06-27T10:42:43.977Z,1423.13
2019-06-27T10:43:44.237Z,1136.25
2019-06-27T10:44:45.463Z,905.63
2019-06-27T10:45:46.493Z,787.50
2019-06-27T10:46:46.084Z,770.63
2019-06-27T10:47:44.973Z,765.00
2019-06-27T10:48:52.051Z,765.00
2019-06-27T10:49:45.290Z,770.63
2019-06-27T10:50:47.529Z,770.63
2019-06-27T10:51:45.761Z,781.88
2019-06-27T10:52:47.539Z,815.63
2019-06-27T10:53:47.996Z,961.88
2019-06-27T10:54:46.964Z,1243.13
2019-06-27T10:55:49.460Z,1552.50
2019-06-27T10:56:47.461Z,1839.38
2019-06-27T10:57:48.501Z,2081.25
2019-06-27T10:58:49.981Z,2272.50
2019-06-27T10:59:48.995Z,2328.75
2019-06-27T11:00:48.474Z,2255.63
2019-06-27T11:01:50.467Z,2086.88
2019-06-27T11:02:53.533Z,1766.25
2019-06-27T11:03:50.054Z,1434.38
2019-06-27T11:04:48.352Z,1170.00
2019-06-27T11:05:53.528Z,956.25
2019-06-27T11:06:50.538Z,793.13
2019-06-27T11:07:52.515Z,759.38
2019-06-27T11:08:50.999Z,742.50
2019-06-27T11:09:50.403Z,742.50
2019-06-27T11:10:51.031Z,731.25
2019-06-27T11:11:51.534Z,731.25
2019-06-27T11:12:53.513Z,731.25
2019-06-27T11:13:58.827Z,731.25
2019-06-27T11:14:59.147Z,725.63
2019-06-27T11:15:52.967Z,720.00
2019-06-27T11:16:52.029Z,725.63
2019-06-27T11:17:52.498Z,714.38
2019-06-27T11:19:12.859Z,714.38
2019-06-27T11:19:52.715Z,720.00
2019-06-27T11:20:53.063Z,720.00
2019-06-27T11:22:07.024Z,720.00
2019-06-27T11:22:52.611Z,714.38
2019-06-27T11:23:53.506Z,714.38
2019-06-27T11:24:53.066Z,708.75
2019-06-27T11:25:55.268Z,708.75
2019-06-27T11:26:52.332Z,708.75
2019-06-27T11:27:54.061Z,708.75
2019-06-27T11:28:53.805Z,708.75
2019-06-27T11:29:58.505Z,708.75
2019-06-27T11:30:55.019Z,708.75
2019-06-27T11:31:53.956Z,714.38
2019-06-27T11:32:55.024Z,708.75
2019-06-27T11:33:54.494Z,708.75
2019-06-27T11:34:59.842Z,703.13
2019-06-27T11:35:55.116Z,703.13
2019-06-27T11:36:56.039Z,697.50
2019-06-27T11:37:55.997Z,697.50
2019-06-27T11:38:56.040Z,691.88
2019-06-27T11:39:55.884Z,686.25
2019-06-27T11:40:56.097Z,686.25
2019-06-27T11:41:56.003Z,675.00
2019-06-27T11:42:56.218Z,675.00
2019-06-27T11:43:57.957Z,669.38
2019-06-27T11:44:57.014Z,663.75
2019-06-27T11:45:57.502Z,663.75
2019-06-27T11:46:57.886Z,658.13
2019-06-27T11:48:01.732Z,652.50
2019-06-27T11:48:59.231Z,652.50
2019-06-27T11:50:04.261Z,652.50
2019-06-27T11:50:56.605Z,652.50
2019-06-27T11:51:56.868Z,658.13
2019-06-27T11:52:58.552Z,646.88
2019-06-27T11:53:57.170Z,646.88
2019-06-27T11:55:01.242Z,652.50
2019-06-27T11:56:13.034Z,641.25
2019-06-27T11:56:59.500Z,641.25
2019-06-27T11:58:01.505Z,635.63
2019-06-27T11:59:00.176Z,635.63
2019-06-27T11:59:58.283Z,635.63
2019-06-27T12:00:59.438Z,630.00
2019-06-27T12:02:01.545Z,630.00
2019-06-27T12:03:00.669Z,630.00
2019-06-27T12:04:01.331Z,630.00
2019-06-27T12:04:59.434Z,624.38
2019-06-27T12:06:01.283Z,624.38
2019-06-27T12:07:00.829Z,624.38
2019-06-27T12:07:59.856Z,630.00
2019-06-27T12:09:04.859Z,630.00
2019-06-27T12:10:02.634Z,630.00
2019-06-27T12:11:04.250Z,624.38
2019-06-27T12:12:02.501Z,618.75
2019-06-27T12:13:02.694Z,618.75
2019-06-27T12:14:13.962Z,618.75
2019-06-27T12:15:03.056Z,618.75
2019-06-27T12:16:01.438Z,618.75
2019-06-27T12:17:09.451Z,613.13
2019-06-27T12:18:17.933Z,618.75
2019-06-27T12:19:10.506Z,613.13
2019-06-27T12:20:06.122Z,607.50
2019-06-27T12:21:06.220Z,607.50
2019-06-27T12:22:06.572Z,601.88
2019-06-27T12:23:04.538Z,596.25
2019-06-27T12:24:04.024Z,590.63
2019-06-27T12:25:12.007Z,585.00
2019-06-27T12:26:07.568Z,585.00
2019-06-27T12:27:07.492Z,579.38
2019-06-27T12:28:05.137Z,579.38
2019-06-27T12:29:04.049Z,579.38
2019-06-27T12:30:04.172Z,573.75
2019-06-27T12:31:19.906Z,568.13
2019-06-27T12:32:04.675Z,579.38
2019-06-27T12:33:08.605Z,562.50
2019-06-27T12:34:08.665Z,556.88